sensor_id;sensor_type;location;lat;lon;timestamp;temperature;humidity
31799;DHT22;18374;51.136;3.502;2023-08-17T00:00:13;17.10;99.90
31799;DHT22;18374;51.136;3.502;2023-08-17T00:02:41;17.10;99.90
31799;DHT22;18374;51.136;3.502;2023-08-17T00:05:09;17.00;99.90
31799;DHT22;18374;51.136;3.502;2023-08-17T00:07:37;17.00;99.90
31799;DHT22;18374;51.136;3.502;2023-08-17T00:10:05;17.10;99.90
31799;DHT22;18374;51.136;3.502;2023-08-17T00:12:33;17.10;99.90
31799;DHT22;18374;51.136;3.502;2023-08-17T00:15:01;17.10;99.90
31799;DHT22;18374;51.136;3.502;2023-08-17T00:17:28;17.20;99.90
31799;DHT22;18374;51.136;3.502;2023-08-17T00:19:57;17.20;99.90
31799;DHT22;18374;51.136;3.502;2023-08-17T00:22:25;17.30;99.90
31799;DHT22;18374;51.136;3.502;2023-08-17T00:24:53;17.30;99.90
31799;DHT22;18374;51.136;3.502;2023-08-17T00:27:20;17.30;99.90
31799;DHT22;18374;51.136;3.502;2023-08-17T00:29:48;17.30;99.90
31799;DHT22;18374;51.136;3.502;2023-08-17T00:32:16;17.30;99.90
31799;DHT22;18374;51.136;3.502;2023-08-17T00:34:45;17.30;99.90
31799;DHT22;18374;51.136;3.502;2023-08-17T00:37:13;17.40;99.90
31799;DHT22;18374;51.136;3.502;2023-08-17T00:39:41;17.40;99.90
31799;DHT22;18374;51.136;3.502;2023-08-17T00:42:08;17.50;99.90
31799;DHT22;18374;51.136;3.502;2023-08-17T00:44:37;17.50;99.90
31799;DHT22;18374;51.136;3.502;2023-08-17T00:47:04;17.50;99.90
31799;DHT22;18374;51.136;3.502;2023-08-17T00:49:34;17.50;99.90
31799;DHT22;18374;51.136;3.502;2023-08-17T00:52:02;17.50;99.90
31799;DHT22;18374;51.136;3.502;2023-08-17T00:54:32;17.50;99.90
31799;DHT22;18374;51.136;3.502;2023-08-17T00:57:00;17.50;99.90
31799;DHT22;18374;51.136;3.502;2023-08-17T00:59:28;17.50;99.90
31799;DHT22;18374;51.136;3.502;2023-08-17T01:02:03;17.50;99.90
31799;DHT22;18374;51.136;3.502;2023-08-17T01:04:32;17.50;99.90
31799;DHT22;18374;51.136;3.502;2023-08-17T01:06:59;17.50;99.90
31799;DHT22;18374;51.136;3.502;2023-08-17T01:09:27;17.50;99.90
31799;DHT22;18374;51.136;3.502;2023-08-17T01:12:32;17.40;99.90
31799;DHT22;18374;51.136;3.502;2023-08-17T01:15:09;17.40;99.90
31799;DHT22;18374;51.136;3.502;2023-08-17T01:17:56;17.30;99.90
31799;DHT22;18374;51.136;3.502;2023-08-17T01:20:26;17.30;99.90
31799;DHT22;18374;51.136;3.502;2023-08-17T01:22:55;17.30;99.90
31799;DHT22;18374;51.136;3.502;2023-08-17T01:25:26;17.30;99.90
31799;DHT22;18374;51.136;3.502;2023-08-17T01:27:54;17.30;99.90
31799;DHT22;18374;51.136;3.502;2023-08-17T01:30:21;17.30;99.90
31799;DHT22;18374;51.136;3.502;2023-08-17T01:33:06;17.30;99.90
31799;DHT22;18374;51.136;3.502;2023-08-17T01:35:59;17.30;99.90
31799;DHT22;18374;51.136;3.502;2023-08-17T01:38:29;17.30;99.90
31799;DHT22;18374;51.136;3.502;2023-08-17T01:40:58;17.20;99.90
31799;DHT22;18374;51.136;3.502;2023-08-17T01:43:28;17.20;99.90
31799;DHT22;18374;51.136;3.502;2023-08-17T01:45:56;17.10;99.90
31799;DHT22;18374;51.136;3.502;2023-08-17T01:48:24;17.10;99.90
31799;DHT22;18374;51.136;3.502;2023-08-17T01:50:52;17.10;99.90
31799;DHT22;18374;51.136;3.502;2023-08-17T01:53:20;17.10;99.90
31799;DHT22;18374;51.136;3.502;2023-08-17T01:55:49;17.10;99.90
31799;DHT22;18374;51.136;3.502;2023-08-17T01:58:20;17.10;99.90
31799;DHT22;18374;51.136;3.502;2023-08-17T02:00:48;17.00;99.90
31799;DHT22;18374;51.136;3.502;2023-08-17T02:03:16;17.00;99.90
31799;DHT22;18374;51.136;3.502;2023-08-17T02:05:47;17.00;99.90
31799;DHT22;18374;51.136;3.502;2023-08-17T02:08:15;16.90;99.90
31799;DHT22;18374;51.136;3.502;2023-08-17T02:10:43;16.90;99.90
31799;DHT22;18374;51.136;3.502;2023-08-17T02:13:10;16.80;99.90
31799;DHT22;18374;51.136;3.502;2023-08-17T02:15:46;16.70;99.90
31799;DHT22;18374;51.136;3.502;2023-08-17T02:18:14;16.70;99.90
31799;DHT22;18374;51.136;3.502;2023-08-17T02:20:42;16.70;99.90
31799;DHT22;18374;51.136;3.502;2023-08-17T02:23:11;16.60;99.90
31799;DHT22;18374;51.136;3.502;2023-08-17T02:25:39;16.60;99.90
31799;DHT22;18374;51.136;3.502;2023-08-17T02:28:07;16.70;99.90
31799;DHT22;18374;51.136;3.502;2023-08-17T02:30:35;16.70;99.90
31799;DHT22;18374;51.136;3.502;2023-08-17T02:33:03;16.70;99.90
31799;DHT22;18374;51.136;3.502;2023-08-17T02:35:31;16.70;99.90
31799;DHT22;18374;51.136;3.502;2023-08-17T02:37:59;16.70;99.90
31799;DHT22;18374;51.136;3.502;2023-08-17T02:40:27;16.80;99.90
31799;DHT22;18374;51.136;3.502;2023-08-17T02:42:55;16.80;99.90
31799;DHT22;18374;51.136;3.502;2023-08-17T02:45:22;16.80;99.90
31799;DHT22;18374;51.136;3.502;2023-08-17T02:47:50;16.70;99.90
31799;DHT22;18374;51.136;3.502;2023-08-17T02:50:18;16.70;99.90
31799;DHT22;18374;51.136;3.502;2023-08-17T02:52:46;16.60;99.90
31799;DHT22;18374;51.136;3.502;2023-08-17T02:55:13;16.70;99.90
31799;DHT22;18374;51.136;3.502;2023-08-17T02:57:41;16.60;99.90
31799;DHT22;18374;51.136;3.502;2023-08-17T03:00:09;16.50;99.90
31799;DHT22;18374;51.136;3.502;2023-08-17T03:02:37;16.50;99.90
31799;DHT22;18374;51.136;3.502;2023-08-17T03:05:05;16.40;99.90
31799;DHT22;18374;51.136;3.502;2023-08-17T03:07:33;16.40;99.90
31799;DHT22;18374;51.136;3.502;2023-08-17T03:10:01;16.40;99.90
31799;DHT22;18374;51.136;3.502;2023-08-17T03:12:29;16.40;99.90
31799;DHT22;18374;51.136;3.502;2023-08-17T03:14:57;16.40;99.90
31799;DHT22;18374;51.136;3.502;2023-08-17T03:17:25;16.40;99.90
31799;DHT22;18374;51.136;3.502;2023-08-17T03:19:54;16.30;99.90
31799;DHT22;18374;51.136;3.502;2023-08-17T03:22:21;16.30;99.90
31799;DHT22;18374;51.136;3.502;2023-08-17T03:24:49;16.40;99.90
31799;DHT22;18374;51.136;3.502;2023-08-17T03:27:17;16.30;99.90
31799;DHT22;18374;51.136;3.502;2023-08-17T03:29:45;16.30;99.90
31799;DHT22;18374;51.136;3.502;2023-08-17T03:32:13;16.30;99.90
31799;DHT22;18374;51.136;3.502;2023-08-17T03:34:41;16.10;99.90
31799;DHT22;18374;51.136;3.502;2023-08-17T03:37:10;16.10;99.90
31799;DHT22;18374;51.136;3.502;2023-08-17T03:39:38;16.10;99.90
31799;DHT22;18374;51.136;3.502;2023-08-17T03:42:06;16.10;99.90
31799;DHT22;18374;51.136;3.502;2023-08-17T03:44:33;16.10;99.90
31799;DHT22;18374;51.136;3.502;2023-08-17T03:47:01;16.10;99.90
31799;DHT22;18374;51.136;3.502;2023-08-17T03:49:29;16.10;99.90
31799;DHT22;18374;51.136;3.502;2023-08-17T03:51:56;16.20;99.90
31799;DHT22;18374;51.136;3.502;2023-08-17T03:54:24;16.20;99.90
31799;DHT22;18374;51.136;3.502;2023-08-17T03:56:52;16.10;99.90
31799;DHT22;18374;51.136;3.502;2023-08-17T03:59:19;16.00;99.90
31799;DHT22;18374;51.136;3.502;2023-08-17T04:01:47;15.90;99.90
31799;DHT22;18374;51.136;3.502;2023-08-17T04:04:15;15.80;99.90
31799;DHT22;18374;51.136;3.502;2023-08-17T04:06:43;15.70;99.90
31799;DHT22;18374;51.136;3.502;2023-08-17T04:09:11;15.70;99.90
31799;DHT22;18374;51.136;3.502;2023-08-17T04:11:39;15.80;99.90
31799;DHT22;18374;51.136;3.502;2023-08-17T04:14:06;15.80;99.90
31799;DHT22;18374;51.136;3.502;2023-08-17T04:16:36;15.80;99.90
31799;DHT22;18374;51.136;3.502;2023-08-17T04:19:04;15.80;99.90
31799;DHT22;18374;51.136;3.502;2023-08-17T04:21:32;15.80;99.90
31799;DHT22;18374;51.136;3.502;2023-08-17T04:24:00;15.80;99.90
31799;DHT22;18374;51.136;3.502;2023-08-17T04:26:29;15.80;99.90
31799;DHT22;18374;51.136;3.502;2023-08-17T04:28:57;15.70;99.90
31799;DHT22;18374;51.136;3.502;2023-08-17T04:31:25;15.70;99.90
31799;DHT22;18374;51.136;3.502;2023-08-17T04:33:59;15.60;99.90
31799;DHT22;18374;51.136;3.502;2023-08-17T04:36:27;15.60;99.90
31799;DHT22;18374;51.136;3.502;2023-08-17T04:38:55;15.60;99.90
31799;DHT22;18374;51.136;3.502;2023-08-17T04:41:24;15.50;99.90
31799;DHT22;18374;51.136;3.502;2023-08-17T04:43:53;15.60;99.90
31799;DHT22;18374;51.136;3.502;2023-08-17T04:46:21;15.50;99.90
31799;DHT22;18374;51.136;3.502;2023-08-17T04:48:49;15.40;99.90
31799;DHT22;18374;51.136;3.502;2023-08-17T04:51:17;15.40;99.90
31799;DHT22;18374;51.136;3.502;2023-08-17T04:53:45;15.40;99.90
31799;DHT22;18374;51.136;3.502;2023-08-17T04:56:13;15.30;99.90
31799;DHT22;18374;51.136;3.502;2023-08-17T04:58:40;15.30;99.90
31799;DHT22;18374;51.136;3.502;2023-08-17T05:01:09;15.40;99.90
31799;DHT22;18374;51.136;3.502;2023-08-17T05:03:38;15.40;99.90
31799;DHT22;18374;51.136;3.502;2023-08-17T05:06:05;15.40;99.90
31799;DHT22;18374;51.136;3.502;2023-08-17T05:08:33;15.30;99.90
31799;DHT22;18374;51.136;3.502;2023-08-17T05:11:01;15.30;99.90
31799;DHT22;18374;51.136;3.502;2023-08-17T05:13:29;15.30;99.90
31799;DHT22;18374;51.136;3.502;2023-08-17T05:16:00;15.40;99.90
31799;DHT22;18374;51.136;3.502;2023-08-17T05:18:29;15.50;99.90
31799;DHT22;18374;51.136;3.502;2023-08-17T05:20:57;15.50;99.90
31799;DHT22;18374;51.136;3.502;2023-08-17T05:23:25;15.50;99.90
31799;DHT22;18374;51.136;3.502;2023-08-17T05:25:53;15.40;99.90
31799;DHT22;18374;51.136;3.502;2023-08-17T05:28:20;15.50;99.90
31799;DHT22;18374;51.136;3.502;2023-08-17T05:30:49;15.50;99.90
31799;DHT22;18374;51.136;3.502;2023-08-17T05:33:17;15.50;99.90
31799;DHT22;18374;51.136;3.502;2023-08-17T05:35:45;15.50;99.90
31799;DHT22;18374;51.136;3.502;2023-08-17T05:38:13;15.60;99.90
31799;DHT22;18374;51.136;3.502;2023-08-17T05:40:41;15.60;99.90
31799;DHT22;18374;51.136;3.502;2023-08-17T05:43:08;15.60;99.90
31799;DHT22;18374;51.136;3.502;2023-08-17T05:45:36;15.70;99.90
31799;DHT22;18374;51.136;3.502;2023-08-17T05:48:05;15.80;99.90
31799;DHT22;18374;51.136;3.502;2023-08-17T05:50:34;15.80;99.90
31799;DHT22;18374;51.136;3.502;2023-08-17T05:53:02;15.90;99.90
31799;DHT22;18374;51.136;3.502;2023-08-17T05:55:29;15.90;99.90
31799;DHT22;18374;51.136;3.502;2023-08-17T05:57:57;16.10;99.90
31799;DHT22;18374;51.136;3.502;2023-08-17T06:00:25;16.20;99.90
31799;DHT22;18374;51.136;3.502;2023-08-17T06:02:52;16.30;99.90
31799;DHT22;18374;51.136;3.502;2023-08-17T06:05:23;16.30;99.90
31799;DHT22;18374;51.136;3.502;2023-08-17T06:07:53;16.50;99.90
31799;DHT22;18374;51.136;3.502;2023-08-17T06:10:23;16.50;99.90
31799;DHT22;18374;51.136;3.502;2023-08-17T06:12:55;16.60;99.90
31799;DHT22;18374;51.136;3.502;2023-08-17T06:15:23;16.70;99.90
31799;DHT22;18374;51.136;3.502;2023-08-17T06:17:51;16.90;99.90
31799;DHT22;18374;51.136;3.502;2023-08-17T06:20:19;16.90;99.90
31799;DHT22;18374;51.136;3.502;2023-08-17T06:22:47;17.00;99.90
31799;DHT22;18374;51.136;3.502;2023-08-17T06:25:16;17.00;99.90
31799;DHT22;18374;51.136;3.502;2023-08-17T06:27:44;17.10;99.90
31799;DHT22;18374;51.136;3.502;2023-08-17T06:30:12;17.20;99.90
31799;DHT22;18374;51.136;3.502;2023-08-17T06:32:40;17.40;99.90
31799;DHT22;18374;51.136;3.502;2023-08-17T06:35:08;17.40;99.90
31799;DHT22;18374;51.136;3.502;2023-08-17T06:37:36;17.50;99.90
31799;DHT22;18374;51.136;3.502;2023-08-17T06:40:04;17.50;99.90
31799;DHT22;18374;51.136;3.502;2023-08-17T06:42:33;17.70;99.90
31799;DHT22;18374;51.136;3.502;2023-08-17T06:45:01;17.80;99.90
31799;DHT22;18374;51.136;3.502;2023-08-17T06:47:29;17.80;99.90
31799;DHT22;18374;51.136;3.502;2023-08-17T06:49:57;17.90;99.90
31799;DHT22;18374;51.136;3.502;2023-08-17T06:52:25;18.00;99.90
31799;DHT22;18374;51.136;3.502;2023-08-17T06:54:53;18.10;99.90
31799;DHT22;18374;51.136;3.502;2023-08-17T06:57:20;18.20;99.90
31799;DHT22;18374;51.136;3.502;2023-08-17T06:59:49;18.20;99.90
31799;DHT22;18374;51.136;3.502;2023-08-17T07:02:16;18.30;99.90
31799;DHT22;18374;51.136;3.502;2023-08-17T07:04:44;18.40;99.90
31799;DHT22;18374;51.136;3.502;2023-08-17T07:07:12;18.40;99.90
31799;DHT22;18374;51.136;3.502;2023-08-17T07:09:41;18.60;99.90
31799;DHT22;18374;51.136;3.502;2023-08-17T07:12:09;18.60;99.90
31799;DHT22;18374;51.136;3.502;2023-08-17T07:14:37;18.80;99.90
31799;DHT22;18374;51.136;3.502;2023-08-17T07:17:04;18.80;99.90
31799;DHT22;18374;51.136;3.502;2023-08-17T07:19:32;18.80;99.90
31799;DHT22;18374;51.136;3.502;2023-08-17T07:22:20;18.80;99.90
31799;DHT22;18374;51.136;3.502;2023-08-17T07:24:47;19.10;99.90
31799;DHT22;18374;51.136;3.502;2023-08-17T07:27:15;19.20;99.90
31799;DHT22;18374;51.136;3.502;2023-08-17T07:29:43;19.30;99.90
31799;DHT22;18374;51.136;3.502;2023-08-17T07:32:11;19.30;99.90
31799;DHT22;18374;51.136;3.502;2023-08-17T07:34:38;19.20;99.90
31799;DHT22;18374;51.136;3.502;2023-08-17T07:37:06;19.10;99.90
31799;DHT22;18374;51.136;3.502;2023-08-17T07:39:34;18.90;99.90
31799;DHT22;18374;51.136;3.502;2023-08-17T07:42:01;18.80;99.90
31799;DHT22;18374;51.136;3.502;2023-08-17T07:44:29;18.60;99.90
31799;DHT22;18374;51.136;3.502;2023-08-17T07:46:58;18.60;99.90
31799;DHT22;18374;51.136;3.502;2023-08-17T07:49:28;18.70;99.90
31799;DHT22;18374;51.136;3.502;2023-08-17T07:52:16;18.80;99.90
31799;DHT22;18374;51.136;3.502;2023-08-17T07:54:45;18.70;99.90
31799;DHT22;18374;51.136;3.502;2023-08-17T07:57:13;18.80;99.90
31799;DHT22;18374;51.136;3.502;2023-08-17T07:59:41;18.90;99.90
31799;DHT22;18374;51.136;3.502;2023-08-17T08:02:08;19.10;99.90
31799;DHT22;18374;51.136;3.502;2023-08-17T08:04:36;19.30;99.90
31799;DHT22;18374;51.136;3.502;2023-08-17T08:07:04;19.40;99.90
31799;DHT22;18374;51.136;3.502;2023-08-17T08:09:32;19.60;99.90
31799;DHT22;18374;51.136;3.502;2023-08-17T08:11:59;19.70;99.90
31799;DHT22;18374;51.136;3.502;2023-08-17T08:14:27;19.80;99.90
31799;DHT22;18374;51.136;3.502;2023-08-17T08:16:55;20.10;99.90
31799;DHT22;18374;51.136;3.502;2023-08-17T08:19:22;20.30;99.90
31799;DHT22;18374;51.136;3.502;2023-08-17T08:21:50;20.40;99.90
31799;DHT22;18374;51.136;3.502;2023-08-17T08:24:18;20.50;99.90
31799;DHT22;18374;51.136;3.502;2023-08-17T08:27:03;20.50;99.90
31799;DHT22;18374;51.136;3.502;2023-08-17T08:29:31;20.50;99.90
31799;DHT22;18374;51.136;3.502;2023-08-17T08:31:59;20.60;99.90
31799;DHT22;18374;51.136;3.502;2023-08-17T08:34:27;20.60;99.90
31799;DHT22;18374;51.136;3.502;2023-08-17T08:36:55;20.90;99.90
31799;DHT22;18374;51.136;3.502;2023-08-17T08:39:25;21.00;99.90
31799;DHT22;18374;51.136;3.502;2023-08-17T08:41:54;21.20;99.90
31799;DHT22;18374;51.136;3.502;2023-08-17T08:44:22;21.30;99.90
31799;DHT22;18374;51.136;3.502;2023-08-17T08:46:54;21.30;99.90
31799;DHT22;18374;51.136;3.502;2023-08-17T08:49:23;21.30;99.90
31799;DHT22;18374;51.136;3.502;2023-08-17T08:51:52;21.40;99.90
31799;DHT22;18374;51.136;3.502;2023-08-17T08:54:21;21.50;99.90
31799;DHT22;18374;51.136;3.502;2023-08-17T08:57:03;21.60;99.90
31799;DHT22;18374;51.136;3.502;2023-08-17T08:59:33;21.70;99.90
31799;DHT22;18374;51.136;3.502;2023-08-17T09:02:02;21.80;99.90
31799;DHT22;18374;51.136;3.502;2023-08-17T09:04:30;21.80;99.90
31799;DHT22;18374;51.136;3.502;2023-08-17T09:06:58;21.90;99.90
31799;DHT22;18374;51.136;3.502;2023-08-17T09:09:26;21.70;99.90
31799;DHT22;18374;51.136;3.502;2023-08-17T09:11:57;21.30;99.90
31799;DHT22;18374;51.136;3.502;2023-08-17T09:14:24;21.20;99.90
31799;DHT22;18374;51.136;3.502;2023-08-17T09:16:52;21.30;99.90
31799;DHT22;18374;51.136;3.502;2023-08-17T09:19:20;21.70;99.90
31799;DHT22;18374;51.136;3.502;2023-08-17T09:21:47;21.80;99.90
31799;DHT22;18374;51.136;3.502;2023-08-17T09:24:18;21.70;99.90
31799;DHT22;18374;51.136;3.502;2023-08-17T09:26:45;21.40;99.90
31799;DHT22;18374;51.136;3.502;2023-08-17T09:29:20;21.60;99.90
31799;DHT22;18374;51.136;3.502;2023-08-17T09:31:48;21.90;99.90
31799;DHT22;18374;51.136;3.502;2023-08-17T09:34:16;22.00;99.90
31799;DHT22;18374;51.136;3.502;2023-08-17T09:36:46;22.00;99.90
31799;DHT22;18374;51.136;3.502;2023-08-17T09:39:17;22.10;99.90
31799;DHT22;18374;51.136;3.502;2023-08-17T09:41:45;22.00;99.90
31799;DHT22;18374;51.136;3.502;2023-08-17T09:44:13;22.00;99.90
31799;DHT22;18374;51.136;3.502;2023-08-17T09:46:44;22.20;99.90
31799;DHT22;18374;51.136;3.502;2023-08-17T09:49:12;22.20;99.90
31799;DHT22;18374;51.136;3.502;2023-08-17T09:51:43;21.90;99.90
31799;DHT22;18374;51.136;3.502;2023-08-17T09:54:22;21.80;99.90
31799;DHT22;18374;51.136;3.502;2023-08-17T09:56:51;22.00;99.90
31799;DHT22;18374;51.136;3.502;2023-08-17T09:59:19;22.20;99.90
31799;DHT22;18374;51.136;3.502;2023-08-17T10:01:49;22.10;99.90
31799;DHT22;18374;51.136;3.502;2023-08-17T10:04:23;22.40;99.90
31799;DHT22;18374;51.136;3.502;2023-08-17T10:07:00;22.30;99.90
31799;DHT22;18374;51.136;3.502;2023-08-17T10:09:41;22.20;99.90
31799;DHT22;18374;51.136;3.502;2023-08-17T10:12:17;22.50;99.90
31799;DHT22;18374;51.136;3.502;2023-08-17T10:14:49;22.10;99.90
31799;DHT22;18374;51.136;3.502;2023-08-17T10:17:26;22.10;99.90
31799;DHT22;18374;51.136;3.502;2023-08-17T10:19:59;21.80;99.90
31799;DHT22;18374;51.136;3.502;2023-08-17T10:22:31;21.70;99.90
31799;DHT22;18374;51.136;3.502;2023-08-17T10:25:02;21.60;99.90
31799;DHT22;18374;51.136;3.502;2023-08-17T10:27:30;21.60;99.90
31799;DHT22;18374;51.136;3.502;2023-08-17T10:29:59;21.60;99.90
31799;DHT22;18374;51.136;3.502;2023-08-17T10:32:27;21.70;99.90
31799;DHT22;18374;51.136;3.502;2023-08-17T10:34:57;22.10;99.90
31799;DHT22;18374;51.136;3.502;2023-08-17T10:37:25;22.70;99.90
31799;DHT22;18374;51.136;3.502;2023-08-17T10:39:53;23.10;99.90
31799;DHT22;18374;51.136;3.502;2023-08-17T10:42:34;23.20;99.90
31799;DHT22;18374;51.136;3.502;2023-08-17T10:45:30;23.30;99.90
31799;DHT22;18374;51.136;3.502;2023-08-17T10:50:37;23.10;99.90
31799;DHT22;18374;51.136;3.502;2023-08-17T10:53:11;23.20;99.90
31799;DHT22;18374;51.136;3.502;2023-08-17T10:55:41;23.10;99.90
31799;DHT22;18374;51.136;3.502;2023-08-17T10:58:11;23.20;99.90
31799;DHT22;18374;51.136;3.502;2023-08-17T11:00:42;23.30;99.90
31799;DHT22;18374;51.136;3.502;2023-08-17T11:03:19;23.60;99.90
31799;DHT22;18374;51.136;3.502;2023-08-17T11:05:50;23.10;99.90
31799;DHT22;18374;51.136;3.502;2023-08-17T11:11:13;23.00;99.90
31799;DHT22;18374;51.136;3.502;2023-08-17T11:13:43;22.90;99.90
31799;DHT22;18374;51.136;3.502;2023-08-17T11:16:13;22.60;99.90
31799;DHT22;18374;51.136;3.502;2023-08-17T11:18:48;22.40;99.90
31799;DHT22;18374;51.136;3.502;2023-08-17T11:21:20;22.30;99.90
31799;DHT22;18374;51.136;3.502;2023-08-17T11:23:48;22.20;99.90
31799;DHT22;18374;51.136;3.502;2023-08-17T11:26:16;22.50;99.90
31799;DHT22;18374;51.136;3.502;2023-08-17T11:28:45;22.40;99.90
31799;DHT22;18374;51.136;3.502;2023-08-17T11:31:14;22.50;99.90
31799;DHT22;18374;51.136;3.502;2023-08-17T11:33:43;22.80;99.90
31799;DHT22;18374;51.136;3.502;2023-08-17T11:36:12;23.00;99.90
31799;DHT22;18374;51.136;3.502;2023-08-17T11:38:42;23.30;99.90
31799;DHT22;18374;51.136;3.502;2023-08-17T11:41:11;23.30;99.90
31799;DHT22;18374;51.136;3.502;2023-08-17T11:43:42;23.30;99.90
31799;DHT22;18374;51.136;3.502;2023-08-17T11:46:11;23.20;99.90
31799;DHT22;18374;51.136;3.502;2023-08-17T11:48:40;23.10;99.90
31799;DHT22;18374;51.136;3.502;2023-08-17T11:51:07;23.10;99.90
31799;DHT22;18374;51.136;3.502;2023-08-17T11:53:36;23.10;99.90
31799;DHT22;18374;51.136;3.502;2023-08-17T11:56:06;22.90;99.90
31799;DHT22;18374;51.136;3.502;2023-08-17T11:58:43;22.60;99.90
31799;DHT22;18374;51.136;3.502;2023-08-17T12:01:13;22.50;99.90
31799;DHT22;18374;51.136;3.502;2023-08-17T12:03:44;22.60;99.90
31799;DHT22;18374;51.136;3.502;2023-08-17T12:06:12;22.50;99.90
31799;DHT22;18374;51.136;3.502;2023-08-17T12:08:50;22.20;99.90
31799;DHT22;18374;51.136;3.502;2023-08-17T12:11:18;22.40;99.90
31799;DHT22;18374;51.136;3.502;2023-08-17T12:13:52;22.40;99.90
31799;DHT22;18374;51.136;3.502;2023-08-17T12:16:22;22.30;99.90
31799;DHT22;18374;51.136;3.502;2023-08-17T12:18:53;22.20;99.90
31799;DHT22;18374;51.136;3.502;2023-08-17T12:21:24;22.30;99.90
31799;DHT22;18374;51.136;3.502;2023-08-17T12:23:53;22.30;99.90
31799;DHT22;18374;51.136;3.502;2023-08-17T12:26:22;22.40;99.90
31799;DHT22;18374;51.136;3.502;2023-08-17T12:28:50;22.50;99.90
31799;DHT22;18374;51.136;3.502;2023-08-17T12:31:22;22.40;99.90
31799;DHT22;18374;51.136;3.502;2023-08-17T12:33:51;22.40;99.90
31799;DHT22;18374;51.136;3.502;2023-08-17T12:36:20;22.40;99.90
31799;DHT22;18374;51.136;3.502;2023-08-17T12:38:49;22.30;99.90
31799;DHT22;18374;51.136;3.502;2023-08-17T12:41:17;22.30;99.90
31799;DHT22;18374;51.136;3.502;2023-08-17T12:43:45;22.20;99.90
31799;DHT22;18374;51.136;3.502;2023-08-17T12:46:13;22.10;99.90
31799;DHT22;18374;51.136;3.502;2023-08-17T12:48:42;22.20;99.90
31799;DHT22;18374;51.136;3.502;2023-08-17T12:51:09;22.20;99.90
31799;DHT22;18374;51.136;3.502;2023-08-17T12:53:37;22.20;99.90
31799;DHT22;18374;51.136;3.502;2023-08-17T12:56:05;22.10;99.90
31799;DHT22;18374;51.136;3.502;2023-08-17T12:58:32;21.90;99.90
31799;DHT22;18374;51.136;3.502;2023-08-17T13:01:01;21.90;99.90
31799;DHT22;18374;51.136;3.502;2023-08-17T13:03:29;22.00;99.90
31799;DHT22;18374;51.136;3.502;2023-08-17T13:05:57;22.20;99.90
31799;DHT22;18374;51.136;3.502;2023-08-17T13:08:25;22.20;99.90
